Time;durP1;ratioP1;P1;durP2;ratioP2;P2;SDS_P1;SDS_P2;PMS_P1;PMS_P2;Temp;Humidity;BMP_temperature;BMP_pressure;BME280_temperature;BME280_humidity;BME280_pressure;Samples;Min_cycle;Max_cycle;Signal;HPM_P1;HPM_P2
2023/03/22 00:01:56;;;;;;;5.20;0.75;;;23.00;99.90;;;;;;5053952;28;20213;-79
2023/03/22 00:04:27;;;;;;;3.58;0.70;;;23.00;99.90;;;;;;5058039;28;20197;-81
2023/03/22 00:06:58;;;;;;;1.70;0.50;;;23.00;99.90;;;;;;5066680;28;20729;-80
2023/03/22 00:09:29;;;;;;;1.45;0.50;;;23.00;99.90;;;;;;5064675;28;20567;-77
2023/03/22 00:12:00;;;;;;;3.42;0.50;;;22.90;99.90;;;;;;5052840;28;20208;-80
2023/03/22 00:14:35;;;;;;;2.58;0.47;;;22.90;99.90;;;;;;5054560;28;20662;-79
2023/03/22 00:17:07;;;;;;;4.75;0.70;;;22.80;99.90;;;;;;5054987;28;20196;-78
2023/03/22 00:19:40;;;;;;;3.15;0.75;;;22.80;99.90;;;;;;5054643;28;20190;-79
2023/03/22 00:22:13;;;;;;;3.03;0.60;;;22.80;99.90;;;;;;5055108;28;20264;-77
2023/03/22 00:24:46;;;;;;;2.92;1.15;;;22.80;99.90;;;;;;5054957;28;20231;-77
2023/03/22 00:27:17;;;;;;;2.50;0.60;;;22.80;99.90;;;;;;5067120;28;20204;-77
2023/03/22 00:29:53;;;;;;;3.60;0.73;;;22.80;99.90;;;;;;5074746;28;20193;-77
2023/03/22 00:32:26;;;;;;;3.22;0.73;;;22.80;99.90;;;;;;5074676;28;20242;-78
2023/03/22 00:34:57;;;;;;;3.50;0.80;;;22.90;99.90;;;;;;5074533;28;20197;-77
2023/03/22 00:37:32;;;;;;;3.05;0.70;;;22.90;99.90;;;;;;5074602;28;20196;-77
2023/03/22 00:40:04;;;;;;;4.93;0.80;;;22.90;99.90;;;;;;5074871;28;20208;-80
2023/03/22 00:42:35;;;;;;;2.50;0.60;;;23.00;99.90;;;;;;5068762;28;20677;-80
2023/03/22 00:45:11;;;;;;;4.47;0.70;;;23.10;99.90;;;;;;5063638;28;20540;-77
2023/03/22 00:47:42;;;;;;;3.78;1.10;;;23.10;99.90;;;;;;5072664;28;20203;-77
2023/03/22 00:50:13;;;;;;;4.32;0.80;;;23.10;99.90;;;;;;5074282;28;20193;-78
2023/03/22 00:52:44;;;;;;;2.97;0.75;;;23.20;99.90;;;;;;5073584;28;20196;-76
2023/03/22 00:55:15;;;;;;;2.83;0.70;;;23.20;99.90;;;;;;5074221;28;20185;-76
2023/03/22 00:57:46;;;;;;;4.72;1.00;;;23.20;99.90;;;;;;5074373;28;20193;-77
2023/03/22 01:00:20;;;;;;;4.38;1.02;;;23.20;99.90;;;;;;5074190;28;20193;-77
2023/03/22 01:02:52;;;;;;;3.67;0.70;;;23.20;99.90;;;;;;5069851;28;20227;-78
2023/03/22 01:05:23;;;;;;;3.85;0.88;;;23.20;99.90;;;;;;5066265;28;20238;-78
2023/03/22 01:07:54;;;;;;;2.70;0.85;;;23.20;99.90;;;;;;5074136;28;20225;-80
2023/03/22 01:10:25;;;;;;;3.35;0.70;;;23.20;99.90;;;;;;5073997;28;20186;-80
2023/03/22 01:12:56;;;;;;;4.25;0.75;;;23.10;99.90;;;;;;5073863;28;20192;-81
2023/03/22 01:15:29;;;;;;;4.72;1.10;;;23.20;99.90;;;;;;5073854;28;20189;-79
2023/03/22 01:18:06;;;;;;;3.20;0.90;;;23.10;99.90;;;;;;5073972;28;20193;-79
2023/03/22 01:20:38;;;;;;;7.05;2.15;;;23.20;99.90;;;;;;5073963;28;20193;-78
2023/03/22 01:23:14;;;;;;;4.47;0.90;;;23.10;99.90;;;;;;5053724;28;20217;-78
2023/03/22 01:25:49;;;;;;;2.67;0.60;;;23.10;99.90;;;;;;5053806;28;20190;-78
2023/03/22 01:28:21;;;;;;;4.80;0.70;;;23.00;99.90;;;;;;5053835;28;20252;-81
2023/03/22 01:30:57;;;;;;;2.78;0.65;;;23.00;99.90;;;;;;5054027;28;20193;-78
2023/03/22 01:33:29;;;;;;;3.85;1.00;;;23.00;99.90;;;;;;5065257;28;20205;-77
2023/03/22 01:36:00;;;;;;;4.32;0.80;;;23.00;99.90;;;;;;5072721;28;20284;-78
2023/03/22 01:38:32;;;;;;;12.82;5.47;;;22.90;99.90;;;;;;5073578;28;20314;-77
2023/03/22 01:41:04;;;;;;;7.63;1.80;;;22.90;99.90;;;;;;5073485;28;20196;-77
2023/03/22 01:43:36;;;;;;;5.47;1.58;;;23.00;99.90;;;;;;5073602;28;20262;-77
2023/03/22 01:46:10;;;;;;;6.97;1.30;;;23.00;99.90;;;;;;5073202;28;20566;-82
2023/03/22 01:48:44;;;;;;;5.00;0.90;;;23.00;99.90;;;;;;5073408;28;20195;-79
2023/03/22 01:51:18;;;;;;;3.63;0.93;;;23.10;99.90;;;;;;5067176;28;20199;-80
2023/03/22 01:53:53;;;;;;;2.95;0.60;;;23.10;99.90;;;;;;5063594;28;20667;-78
2023/03/22 01:56:27;;;;;;;2.13;0.70;;;23.20;99.90;;;;;;5073415;28;20189;-77
2023/03/22 01:58:59;;;;;;;4.00;0.80;;;23.20;99.90;;;;;;5073371;28;20663;-77
2023/03/22 02:01:33;;;;;;;5.40;0.90;;;23.20;99.90;;;;;;5073032;28;20280;-78
2023/03/22 02:04:08;;;;;;;5.05;1.00;;;23.20;99.90;;;;;;5072242;28;20661;-78
2023/03/22 02:06:40;;;;;;;3.80;0.90;;;23.20;99.90;;;;;;5073274;28;20222;-77
2023/03/22 02:09:13;;;;;;;4.25;1.00;;;23.30;99.90;;;;;;5073539;28;20221;-78
2023/03/22 02:11:50;;;;;;;2.55;0.70;;;23.30;99.90;;;;;;5059476;28;20231;-77
2023/03/22 02:14:50;;;;;;;4.28;0.80;;;23.30;99.90;;;;;;5053023;28;20633;-77
2023/03/22 02:17:32;;;;;;;5.18;0.95;;;23.30;99.90;;;;;;5052925;28;20216;-77
2023/03/22 02:20:48;;;;;;;4.45;0.90;;;23.30;99.90;;;;;;5053406;28;20189;-77
2023/03/22 02:24:12;;;;;;;7.55;1.05;;;23.30;99.90;;;;;;5052841;28;20244;-80
2023/03/22 02:27:25;;;;;;;2.72;0.75;;;23.20;99.90;;;;;;5038544;28;20216;-77
2023/03/22 02:30:09;;;;;;;5.75;0.80;;;23.20;99.90;;;;;;5029223;28;20206;-77
2023/03/22 02:33:05;;;;;;;3.45;0.80;;;23.10;99.90;;;;;;5052888;28;20244;-77
2023/03/22 02:35:52;;;;;;;5.50;0.90;;;23.10;99.90;;;;;;5052818;28;20351;-77
2023/03/22 02:38:52;;;;;;;3.72;0.80;;;23.00;99.90;;;;;;5052768;28;20244;-77
2023/03/22 02:41:34;;;;;;;4.65;0.95;;;23.00;99.90;;;;;;5052772;28;20213;-78
2023/03/22 02:44:14;;;;;;;6.45;0.90;;;23.00;99.90;;;;;;5052538;28;20224;-77
2023/03/22 02:46:48;;;;;;;4.45;0.85;;;23.00;99.90;;;;;;5059685;28;20204;-78
2023/03/22 02:49:23;;;;;;;4.75;0.90;;;23.10;99.90;;;;;;5073465;28;20204;-77
2023/03/22 02:52:01;;;;;;;5.15;1.08;;;23.10;99.90;;;;;;5072645;28;20192;-77
2023/03/22 02:54:38;;;;;;;3.40;1.00;;;23.20;99.90;;;;;;5072542;28;20192;-77
2023/03/22 02:57:15;;;;;;;3.25;0.70;;;23.30;99.90;;;;;;5061280;28;20192;-77
2023/03/22 02:59:47;;;;;;;5.70;1.10;;;23.40;99.90;;;;;;5060003;28;20189;-78
2023/03/22 03:02:19;;;;;;;5.22;0.80;;;23.50;99.90;;;;;;5058829;28;20204;-79
2023/03/22 03:04:54;;;;;;;4.25;0.90;;;23.60;99.90;;;;;;5053797;28;20232;-78
2023/03/22 03:07:29;;;;;;;4.97;0.90;;;23.60;99.90;;;;;;5052654;28;20217;-79
2023/03/22 03:10:00;;;;;;;5.80;1.10;;;23.70;99.90;;;;;;5055041;28;20600;-78
2023/03/22 03:12:33;;;;;;;6.90;1.08;;;23.80;99.90;;;;;;5057056;28;20672;-78
2023/03/22 03:15:04;;;;;;;4.25;1.00;;;23.80;99.90;;;;;;5057585;28;20208;-79
2023/03/22 03:17:51;;;;;;;9.18;1.30;;;23.80;99.90;;;;;;5065115;28;20569;-78
2023/03/22 03:20:33;;;;;;;4.95;0.85;;;23.80;99.90;;;;;;5061005;28;20199;-77
2023/03/22 03:23:15;;;;;;;5.15;1.10;;;23.80;99.90;;;;;;5061781;28;20212;-79
2023/03/22 03:25:53;;;;;;;6.55;1.10;;;23.80;99.90;;;;;;5062270;28;20205;-78
2023/03/22 03:28:37;;;;;;;6.03;1.20;;;23.80;99.90;;;;;;5062723;28;20196;-79
2023/03/22 03:31:19;;;;;;;6.75;1.30;;;23.70;99.90;;;;;;5075208;28;20197;-78
2023/03/22 03:34:00;;;;;;;3.38;0.95;;;23.60;99.90;;;;;;5061107;28;20609;-79
2023/03/22 03:36:36;;;;;;;6.03;1.45;;;23.60;99.90;;;;;;5055265;28;20197;-78
2023/03/22 03:39:12;;;;;;;7.03;1.10;;;23.60;99.90;;;;;;5055598;28;20240;-79
2023/03/22 03:41:46;;;;;;;5.47;1.23;;;23.60;99.90;;;;;;5055522;28;20190;-77
2023/03/22 03:44:20;;;;;;;6.68;1.10;;;23.60;99.90;;;;;;5057041;28;20224;-78
2023/03/22 03:46:53;;;;;;;6.43;1.23;;;23.50;99.90;;;;;;5055049;28;20702;-78
2023/03/22 03:49:26;;;;;;;8.93;1.30;;;23.50;99.90;;;;;;5054755;28;20675;-78
2023/03/22 03:51:58;;;;;;;8.05;1.35;;;23.50;99.90;;;;;;5061762;28;20193;-79
2023/03/22 03:54:29;;;;;;;7.50;1.10;;;23.50;99.90;;;;;;5059214;28;20693;-79
2023/03/22 03:57:01;;;;;;;8.75;1.10;;;23.60;99.90;;;;;;5055033;28;20291;-78
2023/03/22 03:59:34;;;;;;;8.43;1.30;;;23.60;99.90;;;;;;5054598;28;20671;-78
2023/03/22 04:02:06;;;;;;;5.65;1.25;;;23.60;99.90;;;;;;5061167;28;20196;-78
2023/03/22 04:04:37;;;;;;;8.13;1.27;;;23.60;99.90;;;;;;5059959;28;20224;-78
2023/03/22 04:07:11;;;;;;;6.28;1.23;;;23.60;99.90;;;;;;5066743;28;20239;-79
2023/03/22 04:09:42;;;;;;;4.68;1.10;;;23.60;99.90;;;;;;5063873;28;20201;-78
2023/03/22 04:12:13;;;;;;;5.03;1.40;;;23.70;99.90;;;;;;5054727;28;20198;-78
2023/03/22 04:14:46;;;;;;;6.93;1.15;;;23.70;99.90;;;;;;5056543;28;20193;-78
2023/03/22 04:17:17;;;;;;;5.47;1.00;;;23.70;99.90;;;;;;5058800;28;20220;-79
2023/03/22 04:19:48;;;;;;;6.57;1.38;;;23.80;99.90;;;;;;5066235;28;20200;-79
2023/03/22 04:22:19;;;;;;;7.60;1.38;;;23.90;99.90;;;;;;5060763;28;20193;-79
2023/03/22 04:24:51;;;;;;;6.00;1.15;;;23.90;99.90;;;;;;5054259;28;20225;-79
2023/03/22 04:27:23;;;;;;;9.93;1.35;;;23.90;99.90;;;;;;5053675;28;20198;-79
2023/03/22 04:29:56;;;;;;;5.65;1.10;;;24.00;99.90;;;;;;5054286;28;20567;-79
2023/03/22 04:32:28;;;;;;;8.45;1.30;;;24.00;99.90;;;;;;5055329;28;20276;-78
2023/03/22 04:34:59;;;;;;;5.93;1.23;;;24.00;99.90;;;;;;5053890;28;20224;-80
2023/03/22 04:37:30;;;;;;;7.53;1.48;;;24.00;99.90;;;;;;5061207;28;20197;-81
2023/03/22 04:40:02;;;;;;;6.15;1.42;;;24.00;99.90;;;;;;5062369;28;20285;-81
2023/03/22 04:42:36;;;;;;;5.43;0.90;;;23.80;99.90;;;;;;5053670;28;20657;-80
2023/03/22 04:45:10;;;;;;;9.40;1.63;;;23.80;99.90;;;;;;5072923;28;20220;-80
2023/03/22 04:47:41;;;;;;;5.70;1.10;;;23.90;99.90;;;;;;5056646;28;20643;-79
2023/03/22 04:50:13;;;;;;;8.68;1.30;;;23.90;99.90;;;;;;5074314;28;20185;-80
2023/03/22 04:52:44;;;;;;;8.75;1.60;;;23.90;99.90;;;;;;5062544;28;20666;-79
2023/03/22 04:55:15;;;;;;;4.80;1.30;;;23.80;99.90;;;;;;5054058;28;20285;-80
2023/03/22 04:57:46;;;;;;;9.43;1.40;;;23.70;99.90;;;;;;5072144;28;20640;-78
2023/03/22 05:00:20;;;;;;;5.28;1.30;;;23.70;99.90;;;;;;5074005;28;20193;-80
2023/03/22 05:02:51;;;;;;;5.13;1.23;;;23.70;99.90;;;;;;5073974;28;20249;-79
2023/03/22 05:05:22;;;;;;;7.47;1.10;;;23.70;99.90;;;;;;5053854;28;20221;-80
2023/03/22 05:07:53;;;;;;;7.18;1.30;;;23.60;99.90;;;;;;5053365;28;20232;-80
2023/03/22 05:10:24;;;;;;;7.43;1.55;;;23.60;99.90;;;;;;5065097;28;20204;-79
2023/03/22 05:12:55;;;;;;;8.73;1.35;;;23.60;99.90;;;;;;5060394;28;20205;-79
2023/03/22 05:15:28;;;;;;;6.72;1.38;;;23.60;99.90;;;;;;5057125;28;20649;-80
2023/03/22 05:17:59;;;;;;;6.30;1.27;;;23.70;99.90;;;;;;5064493;28;20201;-80
2023/03/22 05:20:31;;;;;;;7.60;1.20;;;23.70;99.90;;;;;;5056878;28;20303;-80
2023/03/22 05:23:03;;;;;;;4.70;0.82;;;23.60;99.90;;;;;;5062100;28;20197;-79
2023/03/22 05:25:34;;;;;;;4.82;1.27;;;23.70;99.90;;;;;;5053665;28;20304;-79
2023/03/22 05:28:05;;;;;;;7.95;1.00;;;23.70;99.90;;;;;;5051041;28;20194;-79
2023/03/22 05:30:40;;;;;;;4.15;1.08;;;23.70;99.90;;;;;;5060793;28;20204;-79
2023/03/22 05:33:11;;;;;;;3.95;1.10;;;23.60;99.90;;;;;;5058911;28;20678;-79
2023/03/22 05:35:43;;;;;;;3.97;0.98;;;23.60;99.90;;;;;;5056221;28;20198;-79
2023/03/22 05:38:14;;;;;;;7.07;1.00;;;23.60;99.90;;;;;;5065657;28;20240;-79
2023/03/22 05:40:45;;;;;;;6.93;1.27;;;23.60;99.90;;;;;;5052098;28;20214;-79
2023/03/22 05:43:17;;;;;;;8.60;1.33;;;23.50;99.90;;;;;;5061941;28;20207;-78
2023/03/22 05:45:50;;;;;;;7.75;1.23;;;23.40;99.90;;;;;;5063424;28;20218;-80
2023/03/22 05:48:21;;;;;;;4.55;1.05;;;23.40;99.90;;;;;;5053788;28;20201;-79
2023/03/22 05:50:52;;;;;;;5.93;1.30;;;23.40;99.90;;;;;;5071893;28;20209;-79
2023/03/22 05:53:23;;;;;;;6.38;1.30;;;23.30;99.90;;;;;;5055092;28;20190;-79
2023/03/22 05:55:56;;;;;;;7.05;1.20;;;23.30;99.90;;;;;;5052028;28;20212;-79
2023/03/22 05:58:29;;;;;;;6.75;1.20;;;23.30;99.90;;;;;;5055124;28;20201;-78
2023/03/22 06:01:08;;;;;;;6.63;1.10;;;23.30;99.90;;;;;;5069905;28;20193;-79
2023/03/22 06:03:39;;;;;;;6.60;1.10;;;23.30;99.90;;;;;;5064086;28;20197;-79
2023/03/22 06:06:11;;;;;;;4.72;1.08;;;23.30;99.90;;;;;;5058659;28;20221;-79
2023/03/22 06:08:42;;;;;;;7.50;1.60;;;23.30;99.90;;;;;;5053199;28;20215;-79
2023/03/22 06:11:14;;;;;;;7.25;2.03;;;23.20;99.90;;;;;;5072181;28;20193;-80
2023/03/22 06:13:46;;;;;;;6.97;1.38;;;23.20;99.90;;;;;;5069929;28;20193;-78
2023/03/22 06:16:20;;;;;;;7.68;1.20;;;23.20;99.90;;;;;;5071188;28;20239;-79
2023/03/22 06:18:51;;;;;;;5.28;1.20;;;23.20;99.90;;;;;;5071656;28;20204;-79
2023/03/22 06:21:22;;;;;;;3.97;1.00;;;23.20;99.90;;;;;;5072925;28;20188;-80
2023/03/22 06:23:53;;;;;;;6.70;1.08;;;23.20;99.90;;;;;;5061266;28;20197;-79
2023/03/22 06:26:26;;;;;;;9.27;1.35;;;23.20;99.90;;;;;;5053038;28;20219;-79
2023/03/22 06:28:57;;;;;;;6.85;1.30;;;23.30;99.90;;;;;;5053186;28;20606;-79
2023/03/22 06:31:30;;;;;;;7.00;1.17;;;23.20;99.90;;;;;;5053059;28;20190;-79
2023/03/22 06:34:01;;;;;;;7.57;1.30;;;23.20;99.90;;;;;;5062276;28;20279;-79
2023/03/22 06:36:33;;;;;;;5.63;1.42;;;23.20;99.90;;;;;;5052616;28;20194;-79
2023/03/22 06:39:06;;;;;;;3.90;1.23;;;23.20;99.90;;;;;;5052825;28;20229;-79
2023/03/22 06:41:38;;;;;;;10.07;1.48;;;23.20;99.90;;;;;;5065138;28;20201;-79
2023/03/22 06:44:09;;;;;;;10.40;1.63;;;23.20;99.90;;;;;;5059506;28;20221;-79
2023/03/22 06:46:44;;;;;;;7.40;1.45;;;23.20;99.90;;;;;;5053009;28;20193;-79
2023/03/22 06:49:15;;;;;;;11.43;1.40;;;23.20;99.90;;;;;;5054212;28;20211;-79
2023/03/22 06:51:48;;;;;;;8.93;1.42;;;23.20;99.90;;;;;;5056618;28;20189;-79
2023/03/22 06:54:19;;;;;;;6.43;1.10;;;23.20;99.90;;;;;;5056724;28;20194;-79
2023/03/22 06:56:50;;;;;;;9.10;1.85;;;23.20;99.90;;;;;;5058642;28;20190;-79
2023/03/22 06:59:21;;;;;;;7.40;1.70;;;23.20;99.90;;;;;;5076860;28;20197;-79
2023/03/22 07:01:54;;;;;;;5.65;1.27;;;23.20;99.90;;;;;;5076453;28;20195;-79
2023/03/22 07:04:26;;;;;;;7.88;1.45;;;23.10;99.90;;;;;;5076291;28;20223;-79
2023/03/22 07:06:58;;;;;;;9.43;1.50;;;23.10;99.90;;;;;;5058189;28;20218;-80
2023/03/22 07:09:29;;;;;;;11.35;1.55;;;23.10;99.90;;;;;;5074571;28;20193;-79
2023/03/22 07:12:00;;;;;;;6.03;1.17;;;23.00;99.90;;;;;;5065830;28;20197;-79
2023/03/22 07:14:31;;;;;;;8.52;1.25;;;23.00;99.90;;;;;;5059618;28;20204;-80
2023/03/22 07:17:06;;;;;;;5.53;1.50;;;23.00;99.90;;;;;;5068729;28;20190;-79
2023/03/22 07:19:40;;;;;;;4.90;1.33;;;22.90;99.90;;;;;;5057071;28;20276;-80
2023/03/22 07:22:16;;;;;;;7.63;1.40;;;22.90;99.90;;;;;;5055803;28;20210;-80
2023/03/22 07:24:47;;;;;;;9.10;1.48;;;22.80;99.90;;;;;;5056535;28;20579;-79
2023/03/22 07:27:20;;;;;;;6.32;1.48;;;22.80;99.90;;;;;;5057291;28;20197;-80
2023/03/22 07:29:53;;;;;;;7.57;1.55;;;22.70;99.90;;;;;;5056230;28;20200;-79
2023/03/22 07:32:27;;;;;;;7.30;1.50;;;22.60;99.90;;;;;;5070638;28;20213;-80
2023/03/22 07:34:58;;;;;;;9.57;1.60;;;22.60;99.90;;;;;;5074898;28;20647;-80
2023/03/22 07:37:29;;;;;;;9.80;1.30;;;22.50;99.90;;;;;;5055694;28;20625;-80
2023/03/22 07:40:00;;;;;;;14.38;2.13;;;22.50;99.90;;;;;;5016154;28;20646;-79
2023/03/22 07:42:33;;;;;;;6.40;1.30;;;22.50;99.90;;;;;;5016190;28;20187;-80
2023/03/22 07:45:04;;;;;;;6.63;1.10;;;22.40;99.90;;;;;;5018130;28;20219;-80
2023/03/22 07:47:38;;;;;;;10.80;1.63;;;22.40;99.90;;;;;;5016604;28;20194;-80
2023/03/22 07:50:10;;;;;;;8.65;1.45;;;22.40;99.90;;;;;;5015686;28;20284;-80
2023/03/22 07:52:41;;;;;;;8.27;1.80;;;22.40;99.90;;;;;;5015255;28;20207;-83
2023/03/22 07:55:15;;;;;;;8.80;1.13;;;22.30;99.90;;;;;;5015747;28;20195;-80
2023/03/22 07:57:46;;;;;;;10.05;1.52;;;22.30;99.90;;;;;;5015945;28;20191;-79
2023/03/22 08:00:18;;;;;;;7.47;1.33;;;22.30;99.90;;;;;;5021524;28;20190;-80
2023/03/22 08:02:51;;;;;;;12.43;1.88;;;22.30;99.90;;;;;;5019736;28;20187;-80
2023/03/22 08:05:22;;;;;;;10.43;1.70;;;22.30;99.90;;;;;;5016883;28;20211;-80
2023/03/22 08:07:53;;;;;;;13.48;1.75;;;22.30;99.90;;;;;;5023309;28;20621;-79
2023/03/22 08:10:24;;;;;;;5.55;1.13;;;22.30;99.90;;;;;;5031868;28;20189;-80
2023/03/22 08:12:55;;;;;;;8.02;1.60;;;22.30;99.90;;;;;;5035301;28;20648;-80
2023/03/22 08:15:26;;;;;;;7.97;1.50;;;22.30;99.90;;;;;;5034990;28;20195;-80
2023/03/22 08:18:00;;;;;;;8.35;1.40;;;22.30;99.90;;;;;;5021003;28;20187;-80
2023/03/22 08:20:31;;;;;;;11.05;1.60;;;22.30;99.90;;;;;;5015756;28;20274;-82
2023/03/22 08:23:03;;;;;;;11.82;1.33;;;22.30;99.90;;;;;;5031761;28;20206;-83
2023/03/22 08:25:34;;;;;;;9.82;1.60;;;22.30;99.90;;;;;;5019365;28;20218;-80
2023/03/22 08:28:05;;;;;;;4.68;1.20;;;22.30;99.90;;;;;;5022809;28;20226;-80
2023/03/22 08:30:36;;;;;;;6.65;1.42;;;22.30;99.90;;;;;;5035064;28;20197;-80
2023/03/22 08:33:10;;;;;;;5.35;1.23;;;22.30;99.90;;;;;;5030853;28;20218;-79
2023/03/22 08:35:41;;;;;;;8.00;1.20;;;22.30;99.90;;;;;;5015216;28;20613;-79
2023/03/22 08:38:12;;;;;;;5.85;1.15;;;22.30;99.90;;;;;;5025429;28;20304;-78
2023/03/22 08:40:43;;;;;;;9.10;1.63;;;22.30;99.90;;;;;;5070974;28;20227;-80
2023/03/22 08:43:14;;;;;;;9.15;1.45;;;22.20;99.90;;;;;;5054140;28;20197;-80
2023/03/22 08:45:46;;;;;;;9.18;1.48;;;22.30;99.90;;;;;;5059966;28;20213;-79
2023/03/22 08:48:19;;;;;;;10.18;1.73;;;22.20;99.90;;;;;;5070932;28;20637;-79
2023/03/22 08:50:50;;;;;;;12.88;1.73;;;22.20;99.90;;;;;;5058460;28;20194;-79
2023/03/22 08:53:21;;;;;;;6.95;1.40;;;22.20;99.90;;;;;;5064884;28;20185;-79
2023/03/22 08:55:52;;;;;;;10.95;1.50;;;22.20;99.90;;;;;;5071685;28;21206;-79
2023/03/22 08:58:24;;;;;;;6.90;1.20;;;22.20;99.90;;;;;;5061548;28;20217;-78
2023/03/22 09:00:55;;;;;;;8.25;1.30;;;22.20;99.90;;;;;;5064927;28;20203;-79
2023/03/22 09:03:28;;;;;;;6.45;1.08;;;22.20;99.90;;;;;;5064465;28;20204;-79
2023/03/22 09:05:59;;;;;;;10.43;1.85;;;22.20;99.90;;;;;;5071336;28;20219;-78
2023/03/22 09:08:30;;;;;;;7.07;1.48;;;22.20;99.90;;;;;;5067922;28;20189;-78
2023/03/22 09:11:01;;;;;;;7.15;1.20;;;22.20;99.90;;;;;;5054245;28;20194;-79
2023/03/22 09:13:33;;;;;;;8.10;1.42;;;22.20;99.90;;;;;;5060940;28;20684;-79
2023/03/22 09:16:05;;;;;;;12.18;2.58;;;22.20;99.90;;;;;;5057698;28;20197;-80
2023/03/22 09:18:38;;;;;;;7.50;1.60;;;22.20;99.90;;;;;;5067545;28;20217;-78
2023/03/22 09:21:11;;;;;;;7.78;1.60;;;22.20;99.90;;;;;;5058716;28;20203;-79
2023/03/22 09:23:46;;;;;;;8.50;1.60;;;22.20;99.90;;;;;;5053265;28;20204;-79
2023/03/22 09:26:17;;;;;;;8.30;1.55;;;22.20;99.90;;;;;;5057891;28;20655;-81
2023/03/22 09:28:48;;;;;;;3.50;1.08;;;22.20;99.90;;;;;;5067104;28;20663;-79
2023/03/22 09:31:19;;;;;;;6.22;1.40;;;22.20;99.90;;;;;;5064928;28;20279;-79
2023/03/22 09:33:52;;;;;;;6.30;1.42;;;22.20;99.90;;;;;;5058335;28;20276;-79
2023/03/22 09:36:24;;;;;;;10.73;1.40;;;22.20;99.90;;;;;;5060690;28;20205;-79
2023/03/22 09:38:56;;;;;;;4.47;1.20;;;22.20;99.90;;;;;;5056965;28;20799;-79
2023/03/22 09:41:38;;;;;;;7.72;1.50;;;22.20;99.90;;;;;;5057363;28;20216;-79
2023/03/22 09:44:14;;;;;;;9.90;1.50;;;22.20;99.90;;;;;;5058842;28;20656;-79
2023/03/22 09:46:47;;;;;;;6.50;1.10;;;22.20;99.90;;;;;;5057800;28;20683;-78
2023/03/22 09:49:25;;;;;;;4.38;1.10;;;22.20;99.90;;;;;;5059220;28;20197;-79
2023/03/22 09:51:56;;;;;;;6.28;1.10;;;22.20;99.90;;;;;;5059009;28;20295;-79
2023/03/22 09:54:35;;;;;;;5.78;1.20;;;22.20;99.90;;;;;;5068630;28;20193;-79
2023/03/22 09:57:10;;;;;;;8.07;1.20;;;22.20;99.90;;;;;;5055236;28;20193;-80
2023/03/22 09:59:48;;;;;;;7.72;1.23;;;22.20;99.90;;;;;;5061658;28;20208;-80
2023/03/22 10:02:42;;;;;;;4.32;1.00;;;22.20;99.90;;;;;;5066363;28;20203;-79
2023/03/22 10:05:24;;;;;;;4.45;1.10;;;22.20;99.90;;;;;;5065067;28;20231;-80
2023/03/22 10:08:24;;;;;;;6.97;1.20;;;22.20;99.90;;;;;;5065121;28;20666;-79
2023/03/22 10:10:56;;;;;;;7.45;1.45;;;22.10;99.90;;;;;;5055073;28;20219;-83
2023/03/22 10:13:32;;;;;;;7.10;1.27;;;22.10;99.90;;;;;;5066692;28;20211;-82
2023/03/22 10:16:06;;;;;;;7.53;1.40;;;22.10;99.90;;;;;;5073323;28;20195;-80
2023/03/22 10:18:40;;;;;;;6.35;1.13;;;22.10;99.90;;;;;;5071581;28;20185;-80
2023/03/22 10:21:15;;;;;;;7.88;1.10;;;22.10;99.90;;;;;;5054112;28;20193;-80
2023/03/22 10:23:52;;;;;;;6.65;1.15;;;22.10;99.90;;;;;;5068715;28;20205;-79
2023/03/22 10:26:28;;;;;;;9.27;1.23;;;22.10;99.90;;;;;;5065421;28;20212;-81
2023/03/22 10:29:03;;;;;;;10.68;1.42;;;22.10;99.90;;;;;;5069297;28;20245;-78
2023/03/22 10:31:36;;;;;;;6.18;1.10;;;22.10;99.90;;;;;;5068700;28;20684;-79
2023/03/22 10:34:13;;;;;;;9.02;1.13;;;22.10;99.90;;;;;;5069342;28;20204;-79
2023/03/22 10:36:47;;;;;;;7.20;1.10;;;22.10;99.90;;;;;;5067279;28;20204;-79
2023/03/22 10:39:30;;;;;;;9.90;1.50;;;22.10;99.90;;;;;;5064483;28;20225;-79
2023/03/22 10:42:04;;;;;;;5.55;1.10;;;22.10;99.90;;;;;;5061764;28;20202;-78
2023/03/22 10:44:47;;;;;;;6.43;1.17;;;22.10;99.90;;;;;;5057672;28;20204;-80
2023/03/22 10:47:24;;;;;;;8.15;1.20;;;22.10;99.90;;;;;;5068550;28;20270;-79
2023/03/22 10:49:57;;;;;;;7.25;1.30;;;22.00;99.90;;;;;;5060072;28;20197;-79
2023/03/22 10:52:44;;;;;;;4.90;0.93;;;22.10;99.90;;;;;;5072329;28;20197;-79
2023/03/22 10:55:16;;;;;;;3.35;0.77;;;22.10;99.90;;;;;;5065122;28;20192;-79
2023/03/22 10:57:56;;;;;;;5.05;1.20;;;22.10;99.90;;;;;;5076725;28;20218;-79
2023/03/22 11:00:27;;;;;;;4.80;1.00;;;22.10;99.90;;;;;;5064699;28;20215;-81
2023/03/22 11:03:03;;;;;;;7.32;1.27;;;22.00;99.90;;;;;;5066098;28;20797;-79
2023/03/22 11:05:35;;;;;;;5.07;1.08;;;22.00;99.90;;;;;;5059959;28;20262;-79
2023/03/22 11:08:08;;;;;;;7.32;1.05;;;22.00;99.90;;;;;;5060206;28;20213;-79
2023/03/22 11:10:39;;;;;;;4.57;1.00;;;22.00;99.90;;;;;;5059144;28;20211;-78
2023/03/22 11:13:24;;;;;;;5.40;1.00;;;22.00;99.90;;;;;;5057196;28;20195;-79
2023/03/22 11:16:00;;;;;;;7.00;1.33;;;22.00;99.90;;;;;;5063944;28;20667;-79
2023/03/22 11:18:34;;;;;;;5.97;1.10;;;22.00;99.90;;;;;;5056748;28;20201;-79
2023/03/22 11:21:11;;;;;;;10.10;1.70;;;22.00;99.90;;;;;;5061746;28;20193;-78
2023/03/22 11:23:49;;;;;;;7.97;1.30;;;22.00;99.90;;;;;;5055821;28;20223;-78
2023/03/22 11:26:30;;;;;;;6.20;1.58;;;21.90;99.90;;;;;;5055524;28;20217;-78
2023/03/22 11:29:13;;;;;;;5.30;1.08;;;21.90;99.90;;;;;;5066569;28;20201;-78
2023/03/22 11:31:59;;;;;;;5.95;1.10;;;21.90;99.90;;;;;;5060369;28;20218;-78
2023/03/22 11:34:32;;;;;;;5.97;1.20;;;21.90;99.90;;;;;;5055284;28;20201;-79
2023/03/22 11:37:09;;;;;;;7.25;1.20;;;21.90;99.90;;;;;;5055940;28;22125;-79
2023/03/22 11:39:49;;;;;;;7.18;1.27;;;21.80;99.90;;;;;;5059231;28;20244;-79
2023/03/22 11:42:22;;;;;;;8.50;1.23;;;21.80;99.90;;;;;;5058767;28;20193;-78
2023/03/22 11:44:54;;;;;;;7.10;1.00;;;21.80;99.90;;;;;;5064287;28;20197;-79
2023/03/22 11:47:26;;;;;;;7.40;1.17;;;21.80;99.90;;;;;;5066314;28;20687;-79
2023/03/22 11:49:58;;;;;;;6.78;1.15;;;21.70;99.90;;;;;;5073898;28;20208;-78
2023/03/22 11:52:30;;;;;;;4.75;1.05;;;21.70;99.90;;;;;;5056960;28;20224;-79
2023/03/22 11:55:03;;;;;;;6.43;1.20;;;21.60;99.90;;;;;;5055292;28;20202;-78
2023/03/22 11:57:38;;;;;;;6.65;1.13;;;21.60;99.90;;;;;;5065561;28;20230;-79
2023/03/22 12:00:14;;;;;;;6.93;1.20;;;21.60;99.90;;;;;;5055526;28;20207;-79
2023/03/22 12:02:49;;;;;;;5.40;1.10;;;21.50;99.90;;;;;;5055474;28;20649;-78
2023/03/22 12:05:26;;;;;;;6.10;1.10;;;21.50;99.90;;;;;;5064801;28;20201;-79
2023/03/22 12:08:01;;;;;;;7.18;1.83;;;21.50;99.90;;;;;;5070241;28;20204;-79
2023/03/22 12:10:38;;;;;;;6.20;1.20;;;21.50;99.90;;;;;;5055327;28;20197;-79
2023/03/22 12:13:15;;;;;;;5.47;1.10;;;21.40;99.90;;;;;;5069584;28;20223;-79
2023/03/22 12:15:55;;;;;;;6.53;1.50;;;21.40;99.90;;;;;;5068510;28;20212;-79
2023/03/22 12:18:31;;;;;;;7.72;2.08;;;21.30;99.90;;;;;;5059000;28;20199;-79
2023/03/22 12:21:04;;;;;;;10.20;1.35;;;21.30;99.90;;;;;;5063511;28;20204;-79
2023/03/22 12:23:38;;;;;;;6.28;1.50;;;21.30;99.90;;;;;;5067884;28;20193;-78
2023/03/22 12:26:18;;;;;;;4.10;1.08;;;21.20;99.90;;;;;;5056741;28;20582;-79
2023/03/22 12:28:55;;;;;;;7.13;1.17;;;21.20;99.90;;;;;;5054969;28;20193;-78
2023/03/22 12:31:31;;;;;;;7.47;1.40;;;21.20;99.90;;;;;;5071156;28;20198;-79
2023/03/22 12:34:05;;;;;;;6.07;1.27;;;21.20;99.90;;;;;;5063276;28;20218;-79
2023/03/22 12:36:42;;;;;;;4.25;1.10;;;21.20;99.90;;;;;;5070695;28;20197;-79
2023/03/22 12:39:22;;;;;;;8.52;1.35;;;21.20;99.90;;;;;;5056570;28;20596;-79
2023/03/22 12:41:59;;;;;;;7.85;1.35;;;21.20;99.90;;;;;;5067724;28;20209;-79
2023/03/22 12:44:32;;;;;;;6.75;1.30;;;21.20;99.90;;;;;;5061118;28;20196;-79
2023/03/22 12:47:07;;;;;;;7.95;1.35;;;21.10;99.90;;;;;;5054377;28;20306;-79
2023/03/22 12:49:43;;;;;;;5.03;1.13;;;21.10;99.90;;;;;;5055982;28;20196;-79
2023/03/22 12:52:19;;;;;;;7.30;1.20;;;21.10;99.90;;;;;;5054181;28;20199;-78
2023/03/22 12:54:52;;;;;;;5.22;0.98;;;21.10;99.90;;;;;;5054744;28;20652;-79
2023/03/22 12:57:25;;;;;;;5.55;1.17;;;21.10;99.90;;;;;;5072288;28;20181;-79
2023/03/22 12:59:59;;;;;;;5.85;0.98;;;21.10;99.90;;;;;;5064373;28;20776;-79
2023/03/22 13:02:33;;;;;;;6.63;0.98;;;21.10;99.90;;;;;;5067372;28;20205;-79
2023/03/22 13:05:06;;;;;;;5.10;1.10;;;21.10;99.90;;;;;;5071512;28;20581;-79
2023/03/22 13:07:52;;;;;;;4.50;1.02;;;21.10;99.90;;;;;;5071049;28;20213;-79
2023/03/22 13:11:02;;;;;;;4.85;1.00;;;21.10;99.90;;;;;;5063583;28;20656;-79
2023/03/22 13:13:47;;;;;;;4.50;1.13;;;21.10;99.90;;;;;;5070423;28;20649;-79
2023/03/22 13:16:23;;;;;;;3.33;1.05;;;21.20;99.90;;;;;;5055256;28;20219;-79
2023/03/22 13:19:27;;;;;;;5.10;1.15;;;21.20;99.90;;;;;;5063225;28;20204;-79
2023/03/22 13:22:15;;;;;;;4.88;0.98;;;21.10;99.90;;;;;;5053507;28;20208;-79
2023/03/22 13:25:08;;;;;;;4.03;1.08;;;21.20;99.90;;;;;;5066436;28;20185;-79